Wilson Maas — 8PSZ — position and weather

sailwx.info

Track history (hours):
 
Tides and Currents Weather Stations Pressure Air Temp Water Temp Dewpoint Dewpoint Depression Visibility Wind Speed Wind Dir Waves Ship Positions

Wilson Maas

Last reported at 2015-Mar-31 13:33 UTC. Time now 2015-Apr-01 01:13 UTC.
Position N 51°52' E 005°25'.

Length 78 m; draft 3.7 m.

Type: Cargo ship. MMSI: 314217000.

Date/timePositionNaut miles runAvg speedWind from/ knotsBaromVisibWave heightAir tempDewpointWater temp
2015-Mar-31 13:33N 51°52' E 005°25'5 5.1
2015-Mar-31 12:33N 51°49' E 005°18'8 7.6
2015-Mar-31 11:33N 51°49' E 005°06'10 8.7
2015-Mar-31 10:26N 51°49' E 004°50'8 8.9
2015-Mar-31 09:33N 51°48' E 004°38'6 0.8
2015-Mar-31 01:29N 51°42' E 004°36'6 6.1
2015-Mar-31 00:30N 51°48' E 004°37'6 6.9
2015-Mar-30 23:33N 51°50' E 004°27'6 5.8
2015-Mar-30 22:33N 51°53' E 004°20'5 5.4
2015-Mar-30 21:33N 51°56' E 004°12'7 7.4
2015-Mar-30 20:34N 51°60' E 004°02'11 7.5
2015-Mar-30 19:04N 52°06' E 003°46'124 7.1
2015-Mar-30 01:32N 54°03' E 004°52'10 8.0
2015-Mar-30 00:16N 54°13' E 004°56'237 7.9
2015-Mar-28 18:21N 58°06' E 006°17'4 3.5
2015-Mar-28 17:13N 58°09' E 006°22'3 4.4
2015-Mar-28 16:33N 58°11' E 006°18'5 5.0
2015-Mar-28 15:33N 58°14' E 006°11'6 6.3
2015-Mar-28 14:33N 58°18' E 006°01'6 6.4
2015-Mar-28 13:33N 58°22' E 005°52'7 7.4
2015-Mar-28 12:32N 58°27' E 005°41'24 8.1
2015-Mar-28 09:34N 58°48' E 005°18'9 9.2
2015-Mar-28 08:33N 58°56' E 005°07'10 9.7
2015-Mar-28 07:33N 59°04' E 004°56'10 9.8
2015-Mar-28 06:29N 59°12' E 004°44'  
2015-Mar-25 13:07N 59°12' E 004°42'610.0
2015-Mar-25 12:33N 59°07' E 004°44'1110.6
2015-Mar-25 11:32N 58°56' E 004°48'290 9.7
2015-Mar-24 05:29N 54°06' E 004°56'2110.3
2015-Mar-24 03:29N 53°46' E 004°52'50 9.8
2015-Mar-23 22:22N 52°59' E 004°20'810.2
2015-Mar-23 21:33N 52°52' E 004°14'1010.4
2015-Mar-23 20:33N 52°43' E 004°05'92 9.9
2015-Mar-23 11:18N 51°35' E 002°24'6 8.6
2015-Mar-23 10:33N 51°31' E 002°18'9 8.4
2015-Mar-23 09:29N 51°23' E 002°11'8 8.7
2015-Mar-23 08:33N 51°15' E 002°06'9 8.7
2015-Mar-23 07:33N 51°10' E 001°55'9 9.3
2015-Mar-23 06:34N 51°04' E 001°43'1310.7
2015-Mar-23 05:22N 50°55' E 001°30'  
Track history (hours):
 
Tides and Currents Weather Stations Pressure Air Temp Water Temp Dewpoint Dewpoint Depression Visibility Wind Speed Wind Dir Waves Ship Positions

Wilson Maas

Last reported at 2015-Mar-31 13:33 UTC. Time now 2015-Apr-01 01:13 UTC.
Position N 51°52' E 005°25'.

Length 78 m; draft 3.7 m.

Type: Cargo ship. MMSI: 314217000.

Date/timePositionNaut miles runAvg speedWind from/ knotsBaromVisibWave heightAir tempDewpointWater temp
2015-Mar-31 13:33N 51°52' E 005°25'5 5.1
2015-Mar-31 12:33N 51°49' E 005°18'8 7.6
2015-Mar-31 11:33N 51°49' E 005°06'10 8.7
2015-Mar-31 10:26N 51°49' E 004°50'8 8.9
2015-Mar-31 09:33N 51°48' E 004°38'6 0.8
2015-Mar-31 01:29N 51°42' E 004°36'6 6.1
2015-Mar-31 00:30N 51°48' E 004°37'6 6.9
2015-Mar-30 23:33N 51°50' E 004°27'6 5.8
2015-Mar-30 22:33N 51°53' E 004°20'5 5.4
2015-Mar-30 21:33N 51°56' E 004°12'7 7.4
2015-Mar-30 20:34N 51°60' E 004°02'11 7.5
2015-Mar-30 19:04N 52°06' E 003°46'124 7.1
2015-Mar-30 01:32N 54°03' E 004°52'10 8.0
2015-Mar-30 00:16N 54°13' E 004°56'237 7.9
2015-Mar-28 18:21N 58°06' E 006°17'4 3.5
2015-Mar-28 17:13N 58°09' E 006°22'3 4.4
2015-Mar-28 16:33N 58°11' E 006°18'5 5.0
2015-Mar-28 15:33N 58°14' E 006°11'6 6.3
2015-Mar-28 14:33N 58°18' E 006°01'6 6.4
2015-Mar-28 13:33N 58°22' E 005°52'7 7.4
2015-Mar-28 12:32N 58°27' E 005°41'24 8.1
2015-Mar-28 09:34N 58°48' E 005°18'9 9.2
2015-Mar-28 08:33N 58°56' E 005°07'10 9.7
2015-Mar-28 07:33N 59°04' E 004°56'10 9.8
2015-Mar-28 06:29N 59°12' E 004°44'  
2015-Mar-25 13:07N 59°12' E 004°42'610.0
2015-Mar-25 12:33N 59°07' E 004°44'1110.6
2015-Mar-25 11:32N 58°56' E 004°48'290 9.7
2015-Mar-24 05:29N 54°06' E 004°56'2110.3
2015-Mar-24 03:29N 53°46' E 004°52'50 9.8
2015-Mar-23 22:22N 52°59' E 004°20'810.2
2015-Mar-23 21:33N 52°52' E 004°14'1010.4
2015-Mar-23 20:33N 52°43' E 004°05'92 9.9
2015-Mar-23 11:18N 51°35' E 002°24'6 8.6
2015-Mar-23 10:33N 51°31' E 002°18'9 8.4
2015-Mar-23 09:29N 51°23' E 002°11'8 8.7
2015-Mar-23 08:33N 51°15' E 002°06'9 8.7
2015-Mar-23 07:33N 51°10' E 001°55'9 9.3
2015-Mar-23 06:34N 51°04' E 001°43'1310.7
2015-Mar-23 05:22N 50°55' E 001°30'  

Dump ship's entire track history